createdAt,value
2023-03-22T00:02:05.393Z,7.52
2023-03-22T00:04:32.130Z,7.68
2023-03-22T00:06:58.691Z,7.66
2023-03-22T00:09:25.193Z,7.48
2023-03-22T00:11:51.777Z,7.61
2023-03-22T00:14:18.635Z,7.47
2023-03-22T00:16:46.266Z,7.56
2023-03-22T00:19:12.909Z,7.59
2023-03-22T00:21:39.383Z,7.46
2023-03-22T00:24:06.514Z,7.40
2023-03-22T00:26:33.065Z,7.61
2023-03-22T00:28:59.823Z,7.63
2023-03-22T00:31:27.485Z,7.60
2023-03-22T00:33:54.005Z,7.97
2023-03-22T00:36:20.466Z,8.23
2023-03-22T00:38:51.744Z,8.63
2023-03-22T00:41:20.815Z,8.73
2023-03-22T00:43:48.039Z,8.68
2023-03-22T00:46:16.134Z,8.59
2023-03-22T00:48:43.520Z,8.63
2023-03-22T00:51:10.748Z,8.61
2023-03-22T00:53:39.269Z,8.57
2023-03-22T00:56:07.919Z,8.57
2023-03-22T00:58:44.046Z,8.62
2023-03-22T01:01:14.573Z,8.44
2023-03-22T01:03:42.964Z,8.47
2023-03-22T01:06:13.060Z,8.38
2023-03-22T01:08:39.650Z,8.36
2023-03-22T01:11:07.292Z,8.34
2023-03-22T01:13:37.354Z,8.24
2023-03-22T01:16:05.646Z,8.40
2023-03-22T01:18:33.785Z,8.37
2023-03-22T01:21:00.440Z,8.15
2023-03-22T01:23:27.486Z,8.24
2023-03-22T01:25:54.090Z,8.35
2023-03-22T01:28:20.588Z,8.18
2023-03-22T01:30:47.064Z,8.58
2023-03-22T01:33:13.814Z,8.62
2023-03-22T01:35:40.558Z,8.52
2023-03-22T01:38:07.954Z,8.41
2023-03-22T01:40:40.728Z,8.67
2023-03-22T01:43:15.912Z,8.74
2023-03-22T01:45:53.609Z,8.65
2023-03-22T01:48:36.286Z,8.56
2023-03-22T01:51:25.251Z,8.38
2023-03-22T01:54:34.141Z,8.37
2023-03-22T01:57:13.876Z,8.20
2023-03-22T01:59:42.942Z,8.23
2023-03-22T02:02:20.099Z,7.99
2023-03-22T02:04:57.940Z,7.71
2023-03-22T02:07:27.638Z,7.89
2023-03-22T02:09:56.408Z,7.70
2023-03-22T02:12:45.584Z,7.87
2023-03-22T02:15:43.540Z,7.71
2023-03-22T02:19:10.883Z,7.65
2023-03-22T02:22:09.799Z,7.55
2023-03-22T02:24:55.595Z,7.39
2023-03-22T02:27:49.599Z,7.46
2023-03-22T02:30:50.841Z,7.36
2023-03-22T02:33:41.551Z,7.37
2023-03-22T02:36:19.496Z,7.30
2023-03-22T02:39:16.363Z,7.24
2023-03-22T02:41:47.217Z,7.21
2023-03-22T02:44:32.658Z,6.96
2023-03-22T02:47:07.992Z,6.84
2023-03-22T02:49:41.284Z,6.82
2023-03-22T02:52:18.301Z,6.63
2023-03-22T02:54:54.164Z,6.66
2023-03-22T02:57:29.995Z,6.47
2023-03-22T03:00:00.441Z,6.45
2023-03-22T03:02:28.859Z,6.47
2023-03-22T03:04:56.627Z,6.38
2023-03-22T03:07:28.811Z,6.03
2023-03-22T03:09:56.346Z,6.23
2023-03-22T03:12:28.057Z,6.06
2023-03-22T03:14:56.619Z,6.37
2023-03-22T03:17:50.461Z,6.62
2023-03-22T03:21:00.294Z,6.61
2023-03-22T03:23:40.050Z,6.60
2023-03-22T03:26:28.279Z,6.41
2023-03-22T03:29:24.375Z,6.28
2023-03-22T03:31:58.631Z,6.30
2023-03-22T03:34:36.860Z,6.19
2023-03-22T03:37:34.279Z,6.27
2023-03-22T03:40:08.838Z,6.30
2023-03-22T03:42:39.750Z,6.45
2023-03-22T03:45:08.343Z,6.52
2023-03-22T03:47:35.997Z,6.43
2023-03-22T03:50:04.475Z,6.51
2023-03-22T03:52:31.470Z,6.22
2023-03-22T03:54:58.384Z,6.17
2023-03-22T03:57:30.849Z,6.28
2023-03-22T03:59:57.571Z,6.17
2023-03-22T04:02:41.431Z,6.33
2023-03-22T04:05:16.362Z,6.42
2023-03-22T04:07:42.922Z,6.51
2023-03-22T04:10:09.929Z,6.61
2023-03-22T04:12:36.814Z,6.64
2023-03-22T04:15:15.373Z,6.61
2023-03-22T04:17:44.329Z,6.67
2023-03-22T04:20:13.408Z,6.65
2023-03-22T04:22:41.298Z,6.49
2023-03-22T04:25:11.840Z,6.58
2023-03-22T04:27:42.779Z,6.39
2023-03-22T04:30:20.051Z,6.37
2023-03-22T04:33:08.445Z,6.06
2023-03-22T04:35:57.307Z,6.12
2023-03-22T04:38:29.899Z,6.11
2023-03-22T04:40:57.857Z,6.10
2023-03-22T04:43:34.863Z,6.23
2023-03-22T04:46:04.276Z,6.55
2023-03-22T04:48:39.113Z,6.56
2023-03-22T04:51:07.867Z,6.54
2023-03-22T04:53:40.052Z,6.40
2023-03-22T04:56:11.475Z,6.44
2023-03-22T04:58:42.980Z,6.35
2023-03-22T05:01:11.827Z,6.38
2023-03-22T05:03:42.963Z,6.22
2023-03-22T05:06:09.964Z,6.06
2023-03-22T05:08:45.583Z,6.08
2023-03-22T05:11:14.916Z,6.17
2023-03-22T05:13:45.191Z,6.03
2023-03-22T05:16:13.617Z,6.06
2023-03-22T05:18:49.803Z,5.99
2023-03-22T05:21:17.977Z,5.88
2023-03-22T05:23:45.751Z,5.91
2023-03-22T05:26:15.975Z,5.92
2023-03-22T05:28:43.805Z,5.89
2023-03-22T05:31:17.120Z,5.83
2023-03-22T05:33:54.417Z,5.78
2023-03-22T05:36:23.908Z,5.75
2023-03-22T05:39:15.851Z,5.97
2023-03-22T05:41:43.053Z,5.93
2023-03-22T05:44:09.662Z,5.87
2023-03-22T05:46:40.329Z,5.80
2023-03-22T05:49:41.994Z,5.95
2023-03-22T05:52:09.052Z,5.88
2023-03-22T05:55:03.737Z,5.90
2023-03-22T05:57:30.295Z,5.99
2023-03-22T05:59:58.161Z,6.02
2023-03-22T06:02:28.815Z,6.05
2023-03-22T06:04:55.302Z,6.03
2023-03-22T06:07:22.668Z,6.16
2023-03-22T06:09:55.151Z,6.13
2023-03-22T06:12:24.754Z,6.19
2023-03-22T06:15:01.400Z,6.24
2023-03-22T06:17:37.105Z,6.27
2023-03-22T06:20:11.388Z,6.37
2023-03-22T06:22:41.254Z,6.49
2023-03-22T06:25:09.068Z,6.47
2023-03-22T06:27:41.161Z,6.51
2023-03-22T06:30:11.616Z,6.62
2023-03-22T06:33:06.000Z,6.80
2023-03-22T06:35:36.364Z,6.96
2023-03-22T06:38:04.327Z,7.02
2023-03-22T06:40:30.999Z,7.25
2023-03-22T06:42:57.430Z,7.47
2023-03-22T06:45:24.367Z,7.54
2023-03-22T06:47:51.018Z,7.64
2023-03-22T06:50:27.523Z,7.74
2023-03-22T06:53:02.460Z,7.84
2023-03-22T06:55:33.202Z,7.93
2023-03-22T06:58:04.480Z,8.10
2023-03-22T07:00:32.412Z,8.20
2023-03-22T07:03:01.436Z,8.23
2023-03-22T07:05:34.190Z,8.67
2023-03-22T07:08:01.157Z,8.76
2023-03-22T07:10:28.709Z,9.05
2023-03-22T07:12:55.953Z,9.26
2023-03-22T07:15:24.623Z,9.30
2023-03-22T07:17:57.463Z,9.40
2023-03-22T07:20:24.137Z,9.92
2023-03-22T07:22:51.709Z,11.18
2023-03-22T07:25:20.954Z,12.71
2023-03-22T07:27:52.508Z,14.37
2023-03-22T07:30:21.093Z,16.02
2023-03-22T07:32:47.642Z,16.85
2023-03-22T07:35:16.928Z,16.81
2023-03-22T07:37:48.543Z,16.10
2023-03-22T07:40:22.179Z,15.28
2023-03-22T07:42:51.626Z,15.39
2023-03-22T07:45:23.922Z,15.14
2023-03-22T07:48:13.540Z,14.55
2023-03-22T07:50:56.355Z,14.27
2023-03-22T07:53:25.597Z,13.86
2023-03-22T07:55:52.396Z,13.17
2023-03-22T07:58:18.856Z,12.89
2023-03-22T08:00:45.609Z,12.86
2023-03-22T08:03:41.426Z,12.75
2023-03-22T08:06:26.868Z,12.90
2023-03-22T08:08:53.392Z,13.07
2023-03-22T08:11:20.292Z,12.80
2023-03-22T08:13:47.093Z,12.77
2023-03-22T08:16:14.075Z,13.00
2023-03-22T08:18:40.792Z,13.21
2023-03-22T08:21:07.480Z,13.62
2023-03-22T08:23:41.904Z,13.76
2023-03-22T08:26:10.287Z,13.92
2023-03-22T08:28:37.236Z,14.01
2023-03-22T08:31:13.254Z,13.96
2023-03-22T08:33:40.821Z,13.86
2023-03-22T08:36:09.254Z,13.91
2023-03-22T08:38:45.349Z,13.77
2023-03-22T08:41:15.801Z,13.51
2023-03-22T08:43:43.163Z,13.41
2023-03-22T08:46:09.784Z,13.55
2023-03-22T08:48:37.914Z,13.17
2023-03-22T08:51:10.590Z,13.21
2023-03-22T08:53:50.275Z,13.42
2023-03-22T08:56:38.225Z,13.45
2023-03-22T08:59:25.359Z,13.44
2023-03-22T09:02:00.451Z,13.14
2023-03-22T09:04:27.199Z,13.34
2023-03-22T09:06:53.913Z,13.41
2023-03-22T09:09:20.687Z,13.46
2023-03-22T09:11:51.405Z,13.42
2023-03-22T09:14:17.959Z,13.53
2023-03-22T09:16:47.044Z,13.56
2023-03-22T09:19:13.953Z,13.53
2023-03-22T09:21:41.139Z,13.42
2023-03-22T09:24:14.712Z,13.48
2023-03-22T09:26:48.951Z,13.77
2023-03-22T09:29:19.347Z,13.41
2023-03-22T09:31:48.784Z,13.72
2023-03-22T09:34:18.559Z,13.70
2023-03-22T09:36:46.188Z,13.63
2023-03-22T09:39:13.410Z,13.86
2023-03-22T09:41:46.193Z,13.86
2023-03-22T09:44:24.616Z,13.89
2023-03-22T09:46:55.023Z,14.19
2023-03-22T09:49:26.156Z,13.96
2023-03-22T09:51:54.331Z,14.12
2023-03-22T09:54:24.331Z,14.13
2023-03-22T09:57:05.650Z,14.17
2023-03-22T09:59:47.636Z,14.07
2023-03-22T10:02:37.595Z,14.43
2023-03-22T10:05:14.475Z,14.57
2023-03-22T10:07:59.023Z,14.71
2023-03-22T10:10:26.333Z,14.34
2023-03-22T10:13:07.699Z,14.59
2023-03-22T10:15:42.187Z,14.83
2023-03-22T10:18:19.512Z,14.60
2023-03-22T10:21:18.581Z,14.97
2023-03-22T10:23:50.972Z,14.85
2023-03-22T10:26:26.185Z,15.15
2023-03-22T10:29:04.063Z,15.21
2023-03-22T10:31:32.099Z,15.17
2023-03-22T10:34:05.327Z,15.32
2023-03-22T10:36:35.655Z,15.26
2023-03-22T10:39:17.258Z,15.54
2023-03-22T10:41:45.480Z,15.71
2023-03-22T10:44:19.360Z,15.66
2023-03-22T10:46:49.082Z,15.62
2023-03-22T10:49:27.075Z,16.03
2023-03-22T10:51:58.128Z,16.17
2023-03-22T10:54:26.270Z,16.23
2023-03-22T10:56:52.893Z,16.36
2023-03-22T10:59:42.306Z,16.57
2023-03-22T11:02:26.384Z,16.67
2023-03-22T11:05:01.045Z,16.83
2023-03-22T11:07:31.746Z,16.83
2023-03-22T11:10:10.607Z,17.13
2023-03-22T11:13:09.550Z,17.09
2023-03-22T11:15:40.691Z,17.12
2023-03-22T11:18:15.678Z,17.08
2023-03-22T11:20:53.001Z,17.18
2023-03-22T11:23:21.522Z,17.23
2023-03-22T11:25:50.169Z,17.25
2023-03-22T11:28:32.828Z,17.10
2023-03-22T11:31:02.394Z,17.08
2023-03-22T11:33:29.563Z,17.17
2023-03-22T11:35:58.626Z,17.28
2023-03-22T11:38:26.266Z,17.29
2023-03-22T11:41:08.929Z,17.22
2023-03-22T11:43:48.496Z,17.17
2023-03-22T11:46:19.179Z,17.26
2023-03-22T11:48:48.224Z,17.09
2023-03-22T11:51:28.041Z,17.25
2023-03-22T11:54:07.771Z,17.24
2023-03-22T11:56:34.797Z,17.18
2023-03-22T11:59:13.321Z,17.04
2023-03-22T12:01:51.881Z,17.05
2023-03-22T12:04:24.633Z,16.96
2023-03-22T12:06:56.081Z,17.02
2023-03-22T12:09:36.488Z,16.86
2023-03-22T12:12:05.117Z,16.64
2023-03-22T12:14:45.514Z,16.80
2023-03-22T12:17:16.781Z,16.82
2023-03-22T12:19:52.569Z,16.80
2023-03-22T12:22:25.391Z,16.67
2023-03-22T12:24:52.007Z,16.62
2023-03-22T12:27:29.437Z,16.74
2023-03-22T12:30:28.421Z,16.86
2023-03-22T12:33:08.942Z,16.92
2023-03-22T12:35:42.144Z,16.98
2023-03-22T12:38:30.305Z,16.76
2023-03-22T12:41:00.967Z,16.61
2023-03-22T12:43:42.133Z,16.72
2023-03-22T12:46:34.424Z,16.61
2023-03-22T12:49:34.674Z,16.58
2023-03-22T12:52:14.201Z,16.60
2023-03-22T12:54:42.114Z,16.76
2023-03-22T12:57:09.468Z,16.70
2023-03-22T12:59:36.874Z,16.62
2023-03-22T13:02:14.100Z,16.53
2023-03-22T13:04:43.104Z,16.71
2023-03-22T13:07:34.249Z,16.88
2023-03-22T13:10:21.361Z,16.90
2023-03-22T13:13:16.773Z,16.90
2023-03-22T13:15:55.827Z,17.09
2023-03-22T13:18:32.565Z,17.04
2023-03-22T13:21:23.555Z,17.04
2023-03-22T13:23:55.076Z,17.03
2023-03-22T13:26:30.872Z,16.94
2023-03-22T13:28:59.921Z,16.98
2023-03-22T13:31:37.444Z,16.90
2023-03-22T13:34:04.854Z,17.03
2023-03-22T13:36:32.070Z,17.00
2023-03-22T13:39:05.006Z,16.96
2023-03-22T13:41:35.696Z,16.93
2023-03-22T13:44:18.761Z,16.98
2023-03-22T13:46:51.438Z,16.88
2023-03-22T13:49:53.280Z,16.93
2023-03-22T13:52:29.273Z,17.12
2023-03-22T13:54:57.575Z,17.29
2023-03-22T13:57:49.113Z,17.18
2023-03-22T14:00:32.658Z,17.11
2023-03-22T14:03:14.187Z,16.94
2023-03-22T14:05:45.259Z,17.05
2023-03-22T14:08:23.764Z,17.05
2023-03-22T14:11:20.761Z,17.14
2023-03-22T14:13:51.781Z,17.21
2023-03-22T14:16:31.335Z,17.17
2023-03-22T14:18:58.109Z,17.06
2023-03-22T14:21:46.826Z,17.09
